sensor_id;sensor_type;location;lat;lon;timestamp;pressure;altitude;pressure_sealevel;temperature;humidity
54876;BME280;40764;48.472;8.166;2023-03-13T00:03:18;97784.13;;;8.52;90.76
54876;BME280;40764;48.472;8.166;2023-03-13T00:09:19;97774.34;;;8.51;90.58
54876;BME280;40764;48.472;8.166;2023-03-13T00:15:19;97787.97;;;8.51;90.69
54876;BME280;40764;48.472;8.166;2023-03-13T00:21:22;97762.56;;;8.55;90.50
54876;BME280;40764;48.472;8.166;2023-03-13T00:27:23;97768.38;;;8.49;90.79
54876;BME280;40764;48.472;8.166;2023-03-13T00:33:23;97771.78;;;8.59;90.21
54876;BME280;40764;48.472;8.166;2023-03-13T00:39:24;97751.63;;;8.79;89.12
54876;BME280;40764;48.472;8.166;2023-03-13T00:45:24;97742.13;;;8.77;89.95
54876;BME280;40764;48.472;8.166;2023-03-13T00:51:26;97734.47;;;8.79;89.57
54876;BME280;40764;48.472;8.166;2023-03-13T00:57:27;97727.81;;;8.66;89.88
54876;BME280;40764;48.472;8.166;2023-03-13T01:03:28;97717.47;;;8.68;90.28
54876;BME280;40764;48.472;8.166;2023-03-13T01:09:28;97715.75;;;8.53;90.83
54876;BME280;40764;48.472;8.166;2023-03-13T01:15:30;97697.94;;;8.80;90.26
54876;BME280;40764;48.472;8.166;2023-03-13T01:21:30;97701.16;;;8.82;89.63
54876;BME280;40764;48.472;8.166;2023-03-13T01:27:31;97676.94;;;8.80;89.79
54876;BME280;40764;48.472;8.166;2023-03-13T01:33:31;97693.41;;;9.08;89.04
54876;BME280;40764;48.472;8.166;2023-03-13T01:39:31;97693.22;;;9.18;89.99
54876;BME280;40764;48.472;8.166;2023-03-13T01:52:12;97658.22;;;9.52;95.88
54876;BME280;40764;48.472;8.166;2023-03-13T01:58:13;97653.78;;;9.43;96.66
54876;BME280;40764;48.472;8.166;2023-03-13T02:04:15;97654.50;;;9.35;98.03
54876;BME280;40764;48.472;8.166;2023-03-13T02:10:16;97637.47;;;9.10;99.60
54876;BME280;40764;48.472;8.166;2023-03-13T02:16:18;97641.63;;;8.89;100.00
54876;BME280;40764;48.472;8.166;2023-03-13T02:28:35;97615.84;;;9.00;100.00
54876;BME280;40764;48.472;8.166;2023-03-13T02:34:39;97608.91;;;9.49;100.00
54876;BME280;40764;48.472;8.166;2023-03-13T02:40:43;97587.81;;;9.27;100.00
54876;BME280;40764;48.472;8.166;2023-03-13T02:46:49;97574.38;;;9.72;100.00
54876;BME280;40764;48.472;8.166;2023-03-13T02:52:57;97578.97;;;10.12;99.03
54876;BME280;40764;48.472;8.166;2023-03-13T02:58:59;97574.50;;;10.16;98.33
54876;BME280;40764;48.472;8.166;2023-03-13T03:05:00;97565.47;;;10.30;97.72
54876;BME280;40764;48.472;8.166;2023-03-13T03:11:00;97546.09;;;10.40;97.12
54876;BME280;40764;48.472;8.166;2023-03-13T03:17:01;97563.84;;;10.42;97.05
54876;BME280;40764;48.472;8.166;2023-03-13T03:23:01;97573.22;;;10.50;96.06
54876;BME280;40764;48.472;8.166;2023-03-13T03:29:02;97580.03;;;10.61;94.69
54876;BME280;40764;48.472;8.166;2023-03-13T03:35:03;97582.63;;;10.66;94.90
54876;BME280;40764;48.472;8.166;2023-03-13T03:41:03;97566.69;;;10.60;95.42
54876;BME280;40764;48.472;8.166;2023-03-13T03:47:04;97563.31;;;10.63;95.42
54876;BME280;40764;48.472;8.166;2023-03-13T03:53:04;97573.41;;;10.76;94.28
54876;BME280;40764;48.472;8.166;2023-03-13T03:59:04;97557.97;;;10.80;93.70
54876;BME280;40764;48.472;8.166;2023-03-13T04:05:05;97569.91;;;10.84;93.40
54876;BME280;40764;48.472;8.166;2023-03-13T04:11:05;97562.06;;;10.91;93.31
54876;BME280;40764;48.472;8.166;2023-03-13T04:17:06;97534.81;;;11.08;91.63
54876;BME280;40764;48.472;8.166;2023-03-13T04:23:06;97536.00;;;11.25;91.36
54876;BME280;40764;48.472;8.166;2023-03-13T04:29:07;97528.09;;;11.14;91.94
54876;BME280;40764;48.472;8.166;2023-03-13T04:35:08;97534.28;;;11.29;91.24
54876;BME280;40764;48.472;8.166;2023-03-13T04:41:08;97532.69;;;11.36;90.46
54876;BME280;40764;48.472;8.166;2023-03-13T04:47:09;97506.53;;;11.13;91.70
54876;BME280;40764;48.472;8.166;2023-03-13T04:53:09;97542.22;;;11.47;89.92
54876;BME280;40764;48.472;8.166;2023-03-13T04:59:11;97527.06;;;11.41;90.53
54876;BME280;40764;48.472;8.166;2023-03-13T05:05:12;97532.38;;;11.46;89.96
54876;BME280;40764;48.472;8.166;2023-03-13T05:11:12;97532.88;;;11.48;90.62
54876;BME280;40764;48.472;8.166;2023-03-13T05:17:13;97538.06;;;11.19;94.47
54876;BME280;40764;48.472;8.166;2023-03-13T05:23:13;97539.38;;;11.22;93.90
54876;BME280;40764;48.472;8.166;2023-03-13T05:29:13;97538.22;;;11.14;95.62
54876;BME280;40764;48.472;8.166;2023-03-13T05:35:14;97533.38;;;11.11;96.44
54876;BME280;40764;48.472;8.166;2023-03-13T05:41:14;97520.69;;;11.15;96.32
54876;BME280;40764;48.472;8.166;2023-03-13T05:47:14;97520.38;;;10.85;98.57
54876;BME280;40764;48.472;8.166;2023-03-13T05:53:17;97538.75;;;10.94;98.96
54876;BME280;40764;48.472;8.166;2023-03-13T05:59:17;97538.50;;;11.04;98.13
54876;BME280;40764;48.472;8.166;2023-03-13T06:05:18;97531.03;;;10.96;98.27
54876;BME280;40764;48.472;8.166;2023-03-13T06:11:18;97535.81;;;11.21;97.02
54876;BME280;40764;48.472;8.166;2023-03-13T06:17:18;97536.56;;;11.04;98.01
54876;BME280;40764;48.472;8.166;2023-03-13T06:23:19;97545.09;;;11.03;98.62
54876;BME280;40764;48.472;8.166;2023-03-13T06:29:19;97536.47;;;11.18;97.69
54876;BME280;40764;48.472;8.166;2023-03-13T06:35:19;97532.16;;;11.26;97.63
54876;BME280;40764;48.472;8.166;2023-03-13T06:41:20;97542.47;;;11.29;97.00
54876;BME280;40764;48.472;8.166;2023-03-13T06:47:20;97532.78;;;11.23;98.19
54876;BME280;40764;48.472;8.166;2023-03-13T06:53:21;97532.38;;;11.46;96.36
54876;BME280;40764;48.472;8.166;2023-03-13T06:59:21;97526.41;;;11.36;97.54
54876;BME280;40764;48.472;8.166;2023-03-13T07:05:21;97535.19;;;11.64;95.57
54876;BME280;40764;48.472;8.166;2023-03-13T07:11:22;97553.00;;;11.53;96.48
54876;BME280;40764;48.472;8.166;2023-03-13T07:17:22;97537.94;;;11.64;95.58
54876;BME280;40764;48.472;8.166;2023-03-13T07:23:24;97528.75;;;11.60;96.27
54876;BME280;40764;48.472;8.166;2023-03-13T07:29:25;97531.81;;;11.67;95.92
54876;BME280;40764;48.472;8.166;2023-03-13T07:35:25;97523.59;;;11.67;95.90
54876;BME280;40764;48.472;8.166;2023-03-13T07:41:25;97498.22;;;11.92;95.04
54876;BME280;40764;48.472;8.166;2023-03-13T07:47:26;97470.53;;;12.20;93.82
54876;BME280;40764;48.472;8.166;2023-03-13T07:53:27;97462.09;;;12.42;93.06
54876;BME280;40764;48.472;8.166;2023-03-13T07:59:27;97465.59;;;12.77;91.43
54876;BME280;40764;48.472;8.166;2023-03-13T08:05:28;97460.84;;;12.95;89.74
54876;BME280;40764;48.472;8.166;2023-03-13T08:11:28;97453.41;;;13.04;89.05
54876;BME280;40764;48.472;8.166;2023-03-13T08:17:29;97455.75;;;13.23;87.99
54876;BME280;40764;48.472;8.166;2023-03-13T08:23:30;97474.09;;;13.40;87.52
54876;BME280;40764;48.472;8.166;2023-03-13T08:29:30;97479.28;;;13.32;86.74
54876;BME280;40764;48.472;8.166;2023-03-13T08:35:30;97451.19;;;13.36;87.13
54876;BME280;40764;48.472;8.166;2023-03-13T08:41:33;97459.28;;;13.23;87.68
54876;BME280;40764;48.472;8.166;2023-03-13T08:47:35;97458.41;;;13.40;86.59
54876;BME280;40764;48.472;8.166;2023-03-13T08:53:36;97461.50;;;13.39;87.36
54876;BME280;40764;48.472;8.166;2023-03-13T08:59:37;97458.41;;;13.40;85.62
54876;BME280;40764;48.472;8.166;2023-03-13T09:05:37;97454.34;;;13.46;86.78
54876;BME280;40764;48.472;8.166;2023-03-13T09:11:38;97427.78;;;13.59;85.88
54876;BME280;40764;48.472;8.166;2023-03-13T09:17:39;97411.03;;;13.93;84.93
54876;BME280;40764;48.472;8.166;2023-03-13T09:23:39;97404.91;;;14.63;80.59
54876;BME280;40764;48.472;8.166;2023-03-13T09:29:40;97392.69;;;15.21;79.59
54876;BME280;40764;48.472;8.166;2023-03-13T09:35:41;97385.28;;;15.74;77.43
54876;BME280;40764;48.472;8.166;2023-03-13T09:41:49;97375.34;;;15.97;72.81
54876;BME280;40764;48.472;8.166;2023-03-13T09:54:25;97333.59;;;16.70;71.29
54876;BME280;40764;48.472;8.166;2023-03-13T10:00:35;97319.28;;;16.81;67.80
54876;BME280;40764;48.472;8.166;2023-03-13T10:06:40;97303.59;;;16.69;69.79
54876;BME280;40764;48.472;8.166;2023-03-13T10:12:45;97314.81;;;16.92;66.89
54876;BME280;40764;48.472;8.166;2023-03-13T10:18:47;97295.22;;;16.97;67.95
54876;BME280;40764;48.472;8.166;2023-03-13T10:25:02;97275.44;;;16.95;67.95
54876;BME280;40764;48.472;8.166;2023-03-13T10:31:32;97256.53;;;17.13;67.93
54876;BME280;40764;48.472;8.166;2023-03-13T10:37:42;97241.38;;;16.71;69.28
54876;BME280;40764;48.472;8.166;2023-03-13T10:43:54;97250.22;;;17.12;67.60
54876;BME280;40764;48.472;8.166;2023-03-13T10:49:56;97249.44;;;17.31;66.51
54876;BME280;40764;48.472;8.166;2023-03-13T10:56:29;97235.41;;;17.20;66.12
54876;BME280;40764;48.472;8.166;2023-03-13T11:02:35;97217.22;;;17.19;66.86
54876;BME280;40764;48.472;8.166;2023-03-13T11:08:36;97198.53;;;17.32;65.49
54876;BME280;40764;48.472;8.166;2023-03-13T11:14:36;97187.22;;;17.37;65.50
54876;BME280;40764;48.472;8.166;2023-03-13T11:20:43;97172.16;;;17.54;64.26
54876;BME280;40764;48.472;8.166;2023-03-13T11:26:59;97135.00;;;17.71;63.97
54876;BME280;40764;48.472;8.166;2023-03-13T11:33:17;97130.56;;;18.12;62.95
54876;BME280;40764;48.472;8.166;2023-03-13T11:46:20;97102.66;;;18.47;59.67
54876;BME280;40764;48.472;8.166;2023-03-13T11:52:51;97098.25;;;18.69;58.44
54876;BME280;40764;48.472;8.166;2023-03-13T12:05:19;97059.88;;;18.67;56.15
54876;BME280;40764;48.472;8.166;2023-03-13T12:11:27;97041.09;;;18.80;56.56
54876;BME280;40764;48.472;8.166;2023-03-13T12:17:37;97033.25;;;19.23;56.03
54876;BME280;40764;48.472;8.166;2023-03-13T12:30:04;96993.75;;;19.70;56.08
54876;BME280;40764;48.472;8.166;2023-03-13T12:54:57;96919.13;;;20.13;52.66
54876;BME280;40764;48.472;8.166;2023-03-13T13:01:04;96917.50;;;19.97;52.96
54876;BME280;40764;48.472;8.166;2023-03-13T13:07:07;96895.97;;;19.80;54.80
54876;BME280;40764;48.472;8.166;2023-03-13T13:13:27;96881.22;;;19.62;54.06
54876;BME280;40764;48.472;8.166;2023-03-13T13:25:39;96843.59;;;20.44;52.18
54876;BME280;40764;48.472;8.166;2023-03-13T13:44:20;96814.19;;;20.29;53.55
54876;BME280;40764;48.472;8.166;2023-03-13T13:50:26;96807.88;;;20.35;53.55
54876;BME280;40764;48.472;8.166;2023-03-13T14:02:35;96774.63;;;21.03;50.14
54876;BME280;40764;48.472;8.166;2023-03-13T14:08:36;96754.81;;;20.72;50.16
54876;BME280;40764;48.472;8.166;2023-03-13T14:14:40;96744.03;;;21.35;50.14
54876;BME280;40764;48.472;8.166;2023-03-13T14:21:03;96724.56;;;21.49;48.20
54876;BME280;40764;48.472;8.166;2023-03-13T14:27:18;96723.03;;;21.16;48.66
54876;BME280;40764;48.472;8.166;2023-03-13T14:33:19;96713.72;;;21.76;47.54
54876;BME280;40764;48.472;8.166;2023-03-13T14:45:33;96685.78;;;20.78;49.65
54876;BME280;40764;48.472;8.166;2023-03-13T14:51:38;96693.25;;;21.10;48.12
54876;BME280;40764;48.472;8.166;2023-03-13T14:57:57;96664.75;;;22.04;46.15
54876;BME280;40764;48.472;8.166;2023-03-13T15:03:57;96637.16;;;22.23;45.65
54876;BME280;40764;48.472;8.166;2023-03-13T15:09:58;96623.28;;;21.54;47.33
54876;BME280;40764;48.472;8.166;2023-03-13T15:16:00;96607.59;;;21.85;47.23
54876;BME280;40764;48.472;8.166;2023-03-13T15:22:01;96594.25;;;21.58;47.30
54876;BME280;40764;48.472;8.166;2023-03-13T15:28:01;96577.97;;;22.19;46.12
54876;BME280;40764;48.472;8.166;2023-03-13T15:34:01;96561.44;;;21.94;47.19
54876;BME280;40764;48.472;8.166;2023-03-13T15:40:05;96533.63;;;21.98;47.39
54876;BME280;40764;48.472;8.166;2023-03-13T15:46:11;96513.09;;;22.30;46.92
54876;BME280;40764;48.472;8.166;2023-03-13T15:52:18;96484.25;;;22.47;44.96
54876;BME280;40764;48.472;8.166;2023-03-13T15:58:18;96469.38;;;21.23;49.37
54876;BME280;40764;48.472;8.166;2023-03-13T16:04:19;96456.25;;;20.57;50.12
54876;BME280;40764;48.472;8.166;2023-03-13T16:10:22;96450.75;;;20.29;51.23
54876;BME280;40764;48.472;8.166;2023-03-13T16:16:26;96447.63;;;19.95;52.22
54876;BME280;40764;48.472;8.166;2023-03-13T16:22:30;96432.25;;;19.69;52.14
54876;BME280;40764;48.472;8.166;2023-03-13T16:28:30;96428.66;;;19.43;53.18
54876;BME280;40764;48.472;8.166;2023-03-13T16:34:31;96429.75;;;18.82;56.92
54876;BME280;40764;48.472;8.166;2023-03-13T16:40:32;96433.59;;;18.60;57.79
54876;BME280;40764;48.472;8.166;2023-03-13T16:46:42;96403.84;;;18.28;59.17
54876;BME280;40764;48.472;8.166;2023-03-13T16:52:45;96414.31;;;17.90;61.42
54876;BME280;40764;48.472;8.166;2023-03-13T16:58:46;96409.22;;;17.41;63.78
54876;BME280;40764;48.472;8.166;2023-03-13T17:04:47;96392.63;;;16.93;66.71
54876;BME280;40764;48.472;8.166;2023-03-13T17:10:48;96397.59;;;16.77;67.92
54876;BME280;40764;48.472;8.166;2023-03-13T17:16:48;96370.53;;;16.53;69.45
54876;BME280;40764;48.472;8.166;2023-03-13T17:22:48;96343.44;;;16.25;71.25
54876;BME280;40764;48.472;8.166;2023-03-13T17:28:54;96342.91;;;16.16;71.23
54876;BME280;40764;48.472;8.166;2023-03-13T17:34:54;96318.25;;;15.93;73.09
54876;BME280;40764;48.472;8.166;2023-03-13T17:40:55;96290.88;;;15.77;73.44
54876;BME280;40764;48.472;8.166;2023-03-13T17:46:55;96291.81;;;15.58;76.79
54876;BME280;40764;48.472;8.166;2023-03-13T17:52:55;96403.66;;;15.40;78.98
54876;BME280;40764;48.472;8.166;2023-03-13T17:58:58;96538.50;;;14.75;94.71
54876;BME280;40764;48.472;8.166;2023-03-13T18:04:59;96342.97;;;14.18;97.25
54876;BME280;40764;48.472;8.166;2023-03-13T18:10:59;96466.94;;;13.98;100.00
54876;BME280;40764;48.472;8.166;2023-03-13T18:17:00;96482.38;;;13.86;100.00
54876;BME280;40764;48.472;8.166;2023-03-13T18:23:00;96428.13;;;13.64;100.00
54876;BME280;40764;48.472;8.166;2023-03-13T18:29:04;96386.34;;;13.55;100.00
54876;BME280;40764;48.472;8.166;2023-03-13T18:35:05;96366.66;;;13.33;100.00
54876;BME280;40764;48.472;8.166;2023-03-13T18:41:06;96366.13;;;13.28;100.00
54876;BME280;40764;48.472;8.166;2023-03-13T18:47:12;96358.69;;;13.28;100.00
54876;BME280;40764;48.472;8.166;2023-03-13T18:53:13;96362.22;;;13.29;100.00
54876;BME280;40764;48.472;8.166;2023-03-13T18:59:17;96382.69;;;13.31;100.00
54876;BME280;40764;48.472;8.166;2023-03-13T19:05:20;96448.56;;;13.31;100.00
54876;BME280;40764;48.472;8.166;2023-03-13T19:11:23;96538.81;;;13.21;100.00
54876;BME280;40764;48.472;8.166;2023-03-13T19:17:25;96590.53;;;13.07;100.00
54876;BME280;40764;48.472;8.166;2023-03-13T19:23:30;96657.25;;;13.11;100.00
54876;BME280;40764;48.472;8.166;2023-03-13T19:29:30;96701.66;;;12.88;100.00
54876;BME280;40764;48.472;8.166;2023-03-13T19:35:35;96891.91;;;10.84;100.00
54876;BME280;40764;48.472;8.166;2023-03-13T19:41:35;96865.78;;;9.93;100.00
54876;BME280;40764;48.472;8.166;2023-03-13T19:47:36;96849.22;;;10.07;100.00
54876;BME280;40764;48.472;8.166;2023-03-13T19:53:36;96800.53;;;10.09;100.00
54876;BME280;40764;48.472;8.166;2023-03-13T19:59:37;96801.81;;;10.20;100.00
54876;BME280;40764;48.472;8.166;2023-03-13T20:05:39;96823.69;;;10.03;100.00
54876;BME280;40764;48.472;8.166;2023-03-13T20:11:39;96813.53;;;10.12;100.00
54876;BME280;40764;48.472;8.166;2023-03-13T20:17:40;96831.38;;;10.18;100.00
54876;BME280;40764;48.472;8.166;2023-03-13T20:23:41;96729.47;;;9.97;100.00
54876;BME280;40764;48.472;8.166;2023-03-13T20:29:41;96694.00;;;9.88;100.00
54876;BME280;40764;48.472;8.166;2023-03-13T20:35:42;96757.66;;;10.09;100.00
54876;BME280;40764;48.472;8.166;2023-03-13T20:41:42;96752.19;;;10.18;100.00
54876;BME280;40764;48.472;8.166;2023-03-13T20:47:42;96754.31;;;10.12;100.00
54876;BME280;40764;48.472;8.166;2023-03-13T20:53:43;96728.03;;;9.90;100.00
54876;BME280;40764;48.472;8.166;2023-03-13T20:59:45;96742.97;;;9.93;100.00
54876;BME280;40764;48.472;8.166;2023-03-13T21:05:45;96781.78;;;9.99;100.00
54876;BME280;40764;48.472;8.166;2023-03-13T21:11:45;96755.66;;;9.89;100.00
54876;BME280;40764;48.472;8.166;2023-03-13T21:17:46;96718.91;;;9.86;100.00
54876;BME280;40764;48.472;8.166;2023-03-13T21:23:46;96756.78;;;9.88;100.00
54876;BME280;40764;48.472;8.166;2023-03-13T21:29:50;96698.63;;;9.96;100.00
54876;BME280;40764;48.472;8.166;2023-03-13T21:35:51;96705.63;;;10.14;100.00
54876;BME280;40764;48.472;8.166;2023-03-13T21:41:51;96687.13;;;10.20;100.00
54876;BME280;40764;48.472;8.166;2023-03-13T21:47:52;96659.38;;;10.09;100.00
54876;BME280;40764;48.472;8.166;2023-03-13T21:53:55;96623.88;;;10.09;100.00
54876;BME280;40764;48.472;8.166;2023-03-13T21:59:55;96656.16;;;10.16;100.00
54876;BME280;40764;48.472;8.166;2023-03-13T22:05:56;96651.63;;;10.20;100.00
54876;BME280;40764;48.472;8.166;2023-03-13T22:11:56;96651.50;;;10.16;100.00
54876;BME280;40764;48.472;8.166;2023-03-13T22:17:56;96660.22;;;10.01;100.00
54876;BME280;40764;48.472;8.166;2023-03-13T22:23:57;96669.03;;;10.07;100.00
54876;BME280;40764;48.472;8.166;2023-03-13T22:29:57;96668.03;;;10.11;100.00
54876;BME280;40764;48.472;8.166;2023-03-13T22:35:58;96682.34;;;10.08;100.00
54876;BME280;40764;48.472;8.166;2023-03-13T22:41:58;96604.69;;;9.97;100.00
54876;BME280;40764;48.472;8.166;2023-03-13T22:47:58;96585.31;;;10.11;100.00
54876;BME280;40764;48.472;8.166;2023-03-13T22:54:05;96645.53;;;10.23;100.00
54876;BME280;40764;48.472;8.166;2023-03-13T23:00:05;96665.25;;;10.29;100.00
54876;BME280;40764;48.472;8.166;2023-03-13T23:06:09;96672.84;;;10.23;100.00
54876;BME280;40764;48.472;8.166;2023-03-13T23:12:12;96663.88;;;10.14;100.00
54876;BME280;40764;48.472;8.166;2023-03-13T23:18:12;96642.47;;;10.24;100.00
54876;BME280;40764;48.472;8.166;2023-03-13T23:24:13;96634.47;;;10.40;100.00
54876;BME280;40764;48.472;8.166;2023-03-13T23:30:15;96646.75;;;10.34;100.00
54876;BME280;40764;48.472;8.166;2023-03-13T23:36:17;96651.06;;;10.35;100.00
54876;BME280;40764;48.472;8.166;2023-03-13T23:42:18;96668.19;;;10.23;100.00
54876;BME280;40764;48.472;8.166;2023-03-13T23:48:18;96672.59;;;10.37;100.00
54876;BME280;40764;48.472;8.166;2023-03-13T23:54:18;96660.19;;;10.39;100.00
